Time;durP1;ratioP1;P1;durP2;ratioP2;P2;SDS_P1;SDS_P2;PMS_P1;PMS_P2;Temp;Humidity;BMP_temperature;BMP_pressure;BME280_temperature;BME280_humidity;BME280_pressure;Samples;Min_cycle;Max_cycle;Signal;HPM_P1;HPM_P2
2023/05/29 00:01:50;;;;;;;7.32;3.47;;;;;;;13.07;93.10;102293.94;5090342;28;20418;-36
2023/05/29 00:04:15;;;;;;;9.88;3.47;;;;;;;13.03;93.50;102295.44;5089954;28;20024;-36
2023/05/29 00:06:41;;;;;;;8.98;3.53;;;;;;;13.04;93.54;102297.09;5089641;28;20495;-36
2023/05/29 00:09:06;;;;;;;;;;;;;;;13.17;91.48;102312.50;5090319;28;20021;-36
2023/05/29 00:11:32;;;;;;;7.35;3.00;;;;;;;12.99;93.03;102309.66;5081605;28;20364;-36
2023/05/29 00:13:57;;;;;;;6.70;2.63;;;;;;;12.92;90.93;102293.34;5076835;28;20024;-36
2023/05/29 00:16:23;;;;;;;10.17;2.70;;;;;;;12.91;89.31;102313.41;5076261;28;20037;-36
2023/05/29 00:18:49;;;;;;;;;;;;;;;12.80;89.07;102312.16;5076542;28;20278;-36
2023/05/29 00:21:15;;;;;;;10.40;3.10;;;;;;;12.83;89.04;102316.34;5075861;28;20015;-36
2023/05/29 00:23:40;;;;;;;;;;;;;;;12.82;87.91;102314.66;5076203;28;20469;-36
2023/05/29 00:26:06;;;;;;;10.23;3.03;;;;;;;12.70;88.83;102319.91;5076907;28;19912;-36
2023/05/29 00:28:31;;;;;;;6.35;2.78;;;;;;;12.62;87.88;102318.22;5076020;28;20040;-36
2023/05/29 00:30:57;;;;;;;9.38;2.90;;;;;;;12.44;87.61;102304.44;5076637;28;20028;-36
2023/05/29 00:33:22;;;;;;;7.05;2.72;;;;;;;12.51;88.04;102318.84;5075696;28;20028;-36
2023/05/29 00:35:48;;;;;;;8.70;2.80;;;;;;;12.45;86.83;102322.41;5076529;28;20028;-36
2023/05/29 00:38:13;;;;;;;9.43;3.90;;;;;;;12.21;86.88;102321.13;5075899;28;20032;-36
2023/05/29 00:40:40;;;;;;;7.87;2.83;;;;;;;12.26;87.34;102331.34;5076065;28;20024;-36
2023/05/29 00:43:05;;;;;;;9.15;2.72;;;;;;;12.32;86.47;102330.53;5076041;28;20353;-36
2023/05/29 00:45:36;;;;;;;10.55;2.78;;;;;;;12.16;87.12;102331.75;5075823;28;20123;-36
2023/05/29 00:48:03;;;;;;;9.32;3.03;;;;;;;12.10;86.42;102330.69;5075942;28;20115;-36
2023/05/29 00:50:28;;;;;;;11.18;2.97;;;;;;;11.99;86.22;102303.31;5075938;28;20133;-36
2023/05/29 00:52:54;;;;;;;8.25;2.55;;;;;;;12.00;87.31;102338.34;5075823;28;20060;-36
2023/05/29 00:55:20;;;;;;;9.30;2.92;;;;;;;11.99;87.43;102328.56;5075594;28;20362;-36
2023/05/29 00:57:46;;;;;;;10.32;3.45;;;;;;;12.02;87.33;102340.88;5075985;28;20031;-36
2023/05/29 01:00:13;;;;;;;8.10;2.90;;;;;;;11.83;87.57;102346.03;5075613;28;20061;-36
2023/05/29 01:02:40;;;;;;;8.85;2.80;;;;;;;11.78;88.76;102356.63;5075587;28;20032;-36
2023/05/29 01:05:06;;;;;;;11.45;3.42;;;;;;;11.68;89.55;102358.88;5075013;28;20032;-36
2023/05/29 01:07:33;;;;;;;13.25;3.25;;;;;;;11.55;90.36;102356.09;5075847;28;20028;-36
2023/05/29 01:09:59;;;;;;;11.23;3.50;;;;;;;11.66;89.49;102352.78;5075182;28;20052;-36
2023/05/29 01:12:30;;;;;;;11.93;3.85;;;;;;;11.47;90.56;102359.81;5075452;28;20029;-36
2023/05/29 01:15:04;;;;;;;12.07;3.20;;;;;;;11.49;90.04;102356.88;5075421;28;20016;-36
2023/05/29 01:17:58;;;;;;;10.98;3.30;;;;;;;11.42;90.68;102362.28;5075321;28;20078;-36
2023/05/29 01:20:41;;;;;;;11.38;3.10;;;;;;;11.49;90.89;102362.31;5074628;28;20024;-36
2023/05/29 01:23:12;;;;;;;10.82;3.25;;;;;;;11.51;90.40;102357.50;5074304;28;20029;-36
2023/05/29 01:25:55;;;;;;;11.73;3.20;;;;;;;11.27;91.38;102358.84;5075472;28;20039;-36
2023/05/29 01:28:24;;;;;;;9.48;3.00;;;;;;;11.25;91.85;102361.75;5075199;28;20373;-36
2023/05/29 01:30:51;;;;;;;9.68;2.72;;;;;;;11.15;92.55;102363.97;5075074;28;20033;-36
2023/05/29 01:33:17;;;;;;;12.20;3.35;;;;;;;10.97;93.38;102358.22;5074749;28;20437;-36
2023/05/29 01:35:42;;;;;;;10.77;2.90;;;;;;;11.14;92.39;102358.75;5075048;28;20028;-36
2023/05/29 01:38:07;;;;;;;9.03;3.03;;;;;;;11.11;92.36;102353.72;5074653;28;20032;-36
2023/05/29 01:40:33;;;;;;;12.53;3.10;;;;;;;11.31;91.70;102362.81;5074601;28;20302;-36
2023/05/29 01:42:59;;;;;;;9.13;2.88;;;;;;;10.99;91.39;102348.88;5075094;28;20064;-36
2023/05/29 01:45:24;;;;;;;9.57;2.70;;;;;;;11.28;91.35;102360.53;5074604;28;20479;-36
2023/05/29 01:47:50;;;;;;;8.25;2.67;;;;;;;11.30;91.08;102363.88;5074411;28;20270;-36
2023/05/29 01:50:18;;;;;;;12.15;2.83;;;;;;;11.23;91.44;102363.00;5074417;28;20032;-36
2023/05/29 01:52:43;;;;;;;12.10;3.40;;;;;;;11.18;90.59;102349.22;5074356;28;20096;-36
2023/05/29 01:55:09;;;;;;;12.75;3.08;;;;;;;11.37;90.89;102359.34;5074358;28;20116;-36
2023/05/29 01:57:35;;;;;;;10.75;2.97;;;;;;;11.19;90.41;102353.59;5074541;28;20028;-36
2023/05/29 02:00:08;;;;;;;10.93;2.95;;;;;;;11.14;90.28;102353.34;5074261;28;20053;-36
2023/05/29 02:02:37;;;;;;;9.20;3.33;;;;;;;11.21;91.59;102354.22;5074459;28;20484;-36
2023/05/29 02:05:03;;;;;;;14.52;3.30;;;;;;;11.30;90.15;102358.44;5074119;28;20047;-36
2023/05/29 02:07:28;;;;;;;9.27;2.97;;;;;;;11.25;nan;102359.03;5074475;28;20026;-36
2023/05/29 02:09:53;;;;;;;7.70;2.90;;;;;;;11.29;89.42;102351.38;5073846;28;20449;-36
2023/05/29 02:12:19;;;;;;;13.13;3.13;;;;;;;11.18;89.53;102350.06;5073728;28;20259;-36
2023/05/29 02:14:44;;;;;;;12.32;3.55;;;;;;;11.08;91.22;102360.41;5073985;28;20017;-36
2023/05/29 02:17:09;;;;;;;15.88;3.85;;;;;;;10.71;92.08;102356.97;5074225;28;20465;-36
2023/05/29 02:19:36;;;;;;;11.48;2.90;;;;;;;10.97;90.83;102369.88;5073876;28;20039;-36
2023/05/29 02:22:02;;;;;;;9.80;2.80;;;;;;;10.85;90.92;102366.03;5074698;28;20024;-36
2023/05/29 02:24:27;;;;;;;8.85;2.78;;;;;;;10.91;90.66;102357.13;5073951;28;20358;-36
2023/05/29 02:26:52;;;;;;;13.80;3.40;;;;;;;10.89;91.18;102361.91;5074211;28;20028;-36
2023/05/29 02:29:18;;;;;;;12.20;3.85;;;;;;;10.89;91.67;102361.91;5074327;28;20107;-36
2023/05/29 02:31:44;;;;;;;8.85;2.40;;;;;;;10.89;91.23;102359.22;5073816;28;20119;-36
2023/05/29 02:34:09;;;;;;;14.75;3.17;;;;;;;10.88;90.48;102372.91;5073485;28;20027;-36
2023/05/29 02:36:37;;;;;;;9.27;2.50;;;;;;;10.72;90.73;102355.94;5074256;28;20059;-36
2023/05/29 02:39:03;;;;;;;10.32;2.80;;;;;;;10.79;91.07;102377.66;5073222;28;20028;-36
2023/05/29 02:41:28;;;;;;;9.13;2.53;;;;;;;10.79;90.99;102367.66;5073973;28;20059;-36
2023/05/29 02:43:53;;;;;;;9.53;3.00;;;;;;;10.71;91.33;102369.66;5073936;28;20039;-36
2023/05/29 02:46:19;;;;;;;9.10;2.60;;;;;;;10.58;91.42;102378.47;5073642;28;20032;-36
2023/05/29 02:48:45;;;;;;;10.27;3.00;;;;;;;10.64;91.71;102382.28;5073215;28;20028;-36
2023/05/29 02:51:10;;;;;;;10.07;2.83;;;;;;;10.46;92.80;102383.59;5073621;28;20067;-36
2023/05/29 02:53:36;;;;;;;12.43;2.70;;;;;;;10.43;93.15;102389.38;5073761;28;20032;-36
2023/05/29 02:56:01;;;;;;;8.37;2.57;;;;;;;10.58;93.49;102381.19;5073615;28;20116;-36
2023/05/29 02:58:27;;;;;;;9.45;2.78;;;;;;;10.59;92.88;102382.88;5073695;28;20309;-36
2023/05/29 03:00:52;;;;;;;11.57;3.20;;;;;;;10.52;93.47;102377.41;5074244;28;20048;-36
2023/05/29 03:03:18;;;;;;;10.17;2.73;;;;;;;10.52;92.79;102374.69;5073706;28;20035;-36
2023/05/29 03:05:43;;;;;;;12.37;3.13;;;;;;;10.35;93.75;102367.88;5073219;28;20036;-36
2023/05/29 03:08:08;;;;;;;14.32;3.20;;;;;;;10.12;96.65;102375.28;5073363;28;20497;-36
2023/05/29 03:10:34;;;;;;;14.93;3.83;;;;;;;10.08;97.04;102374.81;5073724;28;20032;-36
2023/05/29 03:12:59;;;;;;;15.27;3.40;;;;;;;9.99;97.90;102376.78;5073077;28;20101;-36
2023/05/29 03:15:24;;;;;;;13.13;3.30;;;;;;;10.07;97.64;102368.56;5073100;28;20066;-36
2023/05/29 03:17:50;;;;;;;14.93;3.20;;;;;;;10.21;97.38;102379.53;5073329;28;20620;-36
2023/05/29 03:20:15;;;;;;;8.97;2.50;;;;;;;10.13;97.71;102375.09;5073292;28;20457;-36
2023/05/29 03:22:41;;;;;;;14.20;3.00;;;;;;;10.19;97.77;102377.00;5072998;28;20425;-36
2023/05/29 03:25:07;;;;;;;12.30;3.05;;;;;;;10.30;97.45;102386.53;5073828;28;20050;-36
2023/05/29 03:27:32;;;;;;;13.75;4.35;;;;;;;10.04;97.81;102365.41;5073181;28;20055;-36
2023/05/29 03:29:59;;;;;;;11.25;2.97;;;;;;;10.12;97.98;102386.09;5072885;28;20111;-36
2023/05/29 03:32:24;;;;;;;13.57;3.83;;;;;;;10.18;97.92;102388.03;5073424;28;20107;-36
2023/05/29 03:34:50;;;;;;;16.08;3.22;;;;;;;10.26;98.04;102394.19;5073084;28;20442;-36
2023/05/29 03:37:15;;;;;;;14.80;3.55;;;;;;;10.06;98.06;102393.94;5073654;28;20028;-36
2023/05/29 03:39:41;;;;;;;11.57;3.63;;;;;;;10.08;98.48;102396.44;5073328;28;20060;-36
2023/05/29 03:42:09;;;;;;;12.50;3.23;;;;;;;10.13;98.78;102395.88;5073698;28;20032;-36
2023/05/29 03:44:34;;;;;;;12.10;3.15;;;;;;;9.95;98.66;102391.69;5073007;28;20025;-36
2023/05/29 03:46:59;;;;;;;12.33;3.30;;;;;;;9.87;99.62;102377.47;5075299;28;20036;-36
2023/05/29 03:49:25;;;;;;;15.02;3.63;;;;;;;9.82;100.00;102382.63;5077318;28;20039;-36
2023/05/29 03:51:50;;;;;;;14.07;3.77;;;;;;;9.89;100.00;102381.66;5077044;28;20033;-36
2023/05/29 03:54:15;;;;;;;11.00;2.60;;;;;;;9.95;100.00;102396.28;5076713;28;20354;-36
2023/05/29 03:56:43;;;;;;;12.10;3.60;;;;;;;9.93;100.00;102396.47;5077215;28;20043;-36
2023/05/29 03:59:08;;;;;;;15.32;3.50;;;;;;;9.81;100.00;102398.00;5076509;28;20439;-36
2023/05/29 04:01:34;;;;;;;11.23;2.80;;;;;;;9.88;100.00;102390.78;5077242;28;20036;-36
2023/05/29 04:04:00;;;;;;;10.52;2.92;;;;;;;9.92;100.00;102413.72;5076468;28;20270;-36
2023/05/29 04:06:25;;;;;;;9.38;2.60;;;;;;;10.03;100.00;102406.97;5076790;28;20024;-36
2023/05/29 04:08:51;;;;;;;14.35;3.58;;;;;;;9.86;100.00;102419.88;5076146;28;20029;-36
2023/05/29 04:11:16;;;;;;;15.57;3.78;;;;;;;9.80;100.00;102418.75;5076655;28;20024;-36
2023/05/29 04:13:42;;;;;;;16.03;3.67;;;;;;;9.91;100.00;102422.03;5076658;28;20050;-36
2023/05/29 04:16:07;;;;;;;12.57;3.40;;;;;;;9.91;100.00;102420.16;5076403;28;20281;-36
2023/05/29 04:18:33;;;;;;;12.65;3.28;;;;;;;9.94;100.00;102422.47;5076508;28;20158;-36
2023/05/29 04:20:59;;;;;;;15.00;3.57;;;;;;;9.89;99.81;102419.47;5076471;28;20035;-36
2023/05/29 04:23:24;;;;;;;11.82;2.70;;;;;;;9.90;100.00;102426.56;5076200;28;20268;-36
2023/05/29 04:25:52;;;;;;;9.57;2.63;;;;;;;9.92;99.97;102407.47;5077005;28;20031;-36
2023/05/29 04:28:21;;;;;;;10.30;2.83;;;;;;;9.99;100.00;102420.03;5076090;28;20036;-36
2023/05/29 04:30:47;;;;;;;12.57;2.92;;;;;;;10.02;100.00;102421.53;5076640;28;20028;-36
2023/05/29 04:33:14;;;;;;;13.05;3.10;;;;;;;9.96;99.85;102416.88;5075747;28;20044;-36
2023/05/29 04:35:42;;;;;;;12.77;2.92;;;;;;;10.12;98.94;102437.44;5075968;28;20035;-36
2023/05/29 04:38:08;;;;;;;12.40;2.92;;;;;;;10.00;99.90;102424.44;5075875;28;20519;-36
2023/05/29 04:40:36;;;;;;;10.00;3.20;;;;;;;10.09;98.91;102432.41;5076647;28;20112;-36
2023/05/29 04:43:05;;;;;;;8.90;2.85;;;;;;;10.11;98.28;102416.88;5076332;28;20037;-36
2023/05/29 04:45:30;;;;;;;12.40;3.28;;;;;;;10.05;98.65;102438.22;5076357;28;20032;-36
2023/05/29 04:47:55;;;;;;;13.80;3.00;;;;;;;10.15;98.92;102434.34;5075799;28;20111;-36
2023/05/29 04:50:23;;;;;;;13.73;4.13;;;;;;;10.20;98.90;102432.78;5076057;28;20090;-36
2023/05/29 04:52:48;;;;;;;14.77;3.22;;;;;;;10.32;98.31;102433.97;5075569;28;20028;-36
2023/05/29 04:55:14;;;;;;;15.43;3.35;;;;;;;10.40;97.38;102422.22;5075599;28;20024;-36
2023/05/29 04:57:40;;;;;;;12.10;3.13;;;;;;;10.51;96.93;102429.81;5076321;28;20463;-36
2023/05/29 05:00:07;;;;;;;;;;;;;;;10.60;95.88;102433.25;5075837;28;20048;-36
2023/05/29 05:02:32;;;;;;;11.90;3.33;;;;;;;10.46;96.28;102429.56;5076029;28;19912;-36
2023/05/29 05:04:58;;;;;;;12.00;2.90;;;;;;;10.52;96.68;102415.25;5075939;28;20032;-36
2023/05/29 05:07:23;;;;;;;;;;;;;;;10.69;95.80;102442.09;5076638;28;20255;-36
2023/05/29 05:09:49;;;;;;;12.33;3.30;;;;;;;10.64;95.20;102439.97;5075309;28;19912;-36
2023/05/29 05:12:14;;;;;;;13.53;2.83;;;;;;;10.74;95.07;102431.53;5075832;28;20259;-36
2023/05/29 05:14:42;;;;;;;15.20;3.30;;;;;;;10.85;94.83;102444.53;5075239;28;20020;-36
2023/05/29 05:17:07;;;;;;;14.70;3.22;;;;;;;10.74;94.25;102442.34;5075684;28;20261;-36
2023/05/29 05:19:33;;;;;;;11.98;2.72;;;;;;;10.72;93.48;102457.91;5075081;28;20376;-36
2023/05/29 05:21:58;;;;;;;12.87;3.40;;;;;;;10.83;93.71;102465.50;5075463;28;20028;-36
2023/05/29 05:24:23;;;;;;;11.43;2.93;;;;;;;11.03;93.17;102463.03;5075013;28;20029;-36
2023/05/29 05:26:49;;;;;;;10.00;3.20;;;;;;;11.09;93.06;102467.66;5075259;28;20739;-36
2023/05/29 05:29:14;;;;;;;16.00;3.58;;;;;;;11.08;91.68;102463.28;5074882;28;20266;-36
2023/05/29 05:31:40;;;;;;;9.07;2.33;;;;;;;11.21;92.31;102474.19;5075455;28;20063;-36
2023/05/29 05:34:06;;;;;;;11.87;2.73;;;;;;;11.34;91.51;102473.47;5075037;28;20028;-36
2023/05/29 05:36:32;;;;;;;13.82;2.85;;;;;;;11.32;90.71;102472.81;5075344;28;20635;-36
2023/05/29 05:38:58;;;;;;;10.68;2.90;;;;;;;11.29;90.89;102474.06;5074571;28;20025;-36
2023/05/29 05:41:23;;;;;;;10.48;2.95;;;;;;;11.26;90.81;102466.31;5075237;28;20032;-36
2023/05/29 05:43:48;;;;;;;14.77;3.17;;;;;;;11.31;89.89;102473.84;5074618;28;20028;-36
2023/05/29 05:46:14;;;;;;;13.00;3.37;;;;;;;11.54;91.36;102471.75;5074917;28;20282;-36
2023/05/29 05:48:40;;;;;;;14.07;3.65;;;;;;;11.51;89.26;102474.84;5075295;28;20029;-36
2023/05/29 05:51:06;;;;;;;14.80;3.00;;;;;;;11.60;89.51;102448.44;5074466;28;20021;-36
2023/05/29 05:53:31;;;;;;;8.40;2.58;;;;;;;11.76;89.55;102460.81;5074992;28;20150;-36
2023/05/29 05:55:56;;;;;;;10.70;2.42;;;;;;;11.69;88.49;102459.97;5074744;28;20028;-36
2023/05/29 05:58:22;;;;;;;13.07;3.67;;;;;;;11.59;87.97;102449.47;5074926;28;20032;-36
2023/05/29 06:00:48;;;;;;;13.63;3.00;;;;;;;11.60;87.90;102460.09;5074571;28;20293;-36
2023/05/29 06:03:14;;;;;;;;;;;;;;;11.82;87.78;102460.09;5074585;28;20058;-36
2023/05/29 06:05:40;;;;;;;13.95;3.00;;;;;;;11.72;86.60;102460.41;5074469;28;20398;-36
2023/05/29 06:08:08;;;;;;;16.08;3.55;;;;;;;11.78;87.17;102462.31;5074696;28;20032;-36
2023/05/29 06:10:33;;;;;;;10.57;3.03;;;;;;;11.84;86.11;102471.53;5073438;28;20029;-36
2023/05/29 06:12:59;;;;;;;11.02;3.20;;;;;;;11.89;85.86;102477.22;5073809;28;20462;-36
2023/05/29 06:15:24;;;;;;;15.45;3.13;;;;;;;11.92;84.52;102462.44;5074624;28;20039;-36
2023/05/29 06:17:51;;;;;;;15.50;4.10;;;;;;;11.88;84.78;102472.81;5074519;28;20374;-36
2023/05/29 06:20:17;;;;;;;12.27;3.03;;;;;;;12.00;84.74;102470.38;5073889;28;20472;-36
2023/05/29 06:22:42;;;;;;;12.90;3.05;;;;;;;11.93;86.15;102473.06;5073577;28;20063;-36
2023/05/29 06:25:09;;;;;;;10.35;2.85;;;;;;;12.05;83.86;102478.75;5073894;28;20029;-36
2023/05/29 06:27:35;;;;;;;14.07;3.10;;;;;;;12.14;82.80;102484.84;5073863;28;20073;-36
2023/05/29 06:30:00;;;;;;;13.57;3.40;;;;;;;12.22;82.63;102492.81;5073897;28;20032;-36
2023/05/29 06:32:27;;;;;;;9.43;3.05;;;;;;;12.18;81.31;102489.66;5073809;28;20384;-36
2023/05/29 06:34:52;;;;;;;12.30;3.22;;;;;;;12.13;81.08;102478.59;5073948;28;20048;-36
2023/05/29 06:37:18;;;;;;;15.32;2.90;;;;;;;12.03;80.42;102486.25;5074062;28;20473;-36
2023/05/29 06:39:46;;;;;;;14.20;2.80;;;;;;;11.94;81.36;102485.56;5073952;28;20071;-36
2023/05/29 06:42:11;;;;;;;10.15;2.53;;;;;;;12.06;82.10;102481.28;5073941;28;20634;-36
2023/05/29 06:44:37;;;;;;;13.57;3.08;;;;;;;12.18;81.84;102472.56;5073627;28;20104;-36
2023/05/29 06:47:02;;;;;;;15.32;3.75;;;;;;;12.33;80.24;102478.66;5073627;28;20028;-36
2023/05/29 06:49:27;;;;;;;12.43;3.47;;;;;;;12.35;78.94;102487.47;5074089;28;20078;-36
2023/05/29 06:51:53;;;;;;;14.15;3.65;;;;;;;12.42;79.35;102488.31;5073275;28;20029;-36
2023/05/29 06:54:18;;;;;;;8.88;2.50;;;;;;;12.38;79.48;102482.44;5074080;28;20036;-36
2023/05/29 06:56:43;;;;;;;10.90;2.80;;;;;;;12.34;77.90;102480.34;5074146;28;20452;-36
2023/05/29 06:59:12;;;;;;;13.63;3.13;;;;;;;12.24;78.08;102490.72;5073423;28;20027;-36
2023/05/29 07:01:37;;;;;;;10.10;2.88;;;;;;;12.29;77.92;102489.06;5074422;28;20465;-36
2023/05/29 07:04:03;;;;;;;12.02;2.78;;;;;;;12.55;78.63;102498.38;5073206;28;20056;-36
2023/05/29 07:06:28;;;;;;;9.50;2.70;;;;;;;12.62;77.31;102494.63;5073740;28;20404;-36
2023/05/29 07:08:54;;;;;;;12.27;3.50;;;;;;;12.49;76.20;102497.31;5074232;28;20047;-36
2023/05/29 07:11:19;;;;;;;10.93;3.03;;;;;;;12.49;76.07;102489.19;5073989;28;20294;-36
2023/05/29 07:13:44;;;;;;;8.57;2.30;;;;;;;12.66;77.09;102483.38;5073060;28;20025;-36
2023/05/29 07:16:10;;;;;;;9.20;2.33;;;;;;;12.88;76.91;102484.84;5073704;28;20029;-36
2023/05/29 07:18:35;;;;;;;9.25;2.20;;;;;;;12.92;75.59;102491.56;5073015;28;20083;-36
2023/05/29 07:21:01;;;;;;;10.32;2.85;;;;;;;12.97;75.81;102491.78;5074164;28;20070;-36
2023/05/29 07:23:26;;;;;;;9.82;3.17;;;;;;;13.07;75.31;102489.47;5077652;28;20025;-36
2023/05/29 07:25:52;;;;;;;10.57;3.05;;;;;;;12.91;74.33;102494.47;5077779;28;20082;-36
2023/05/29 07:28:17;;;;;;;11.40;2.72;;;;;;;13.05;74.87;102494.28;5077421;28;20025;-36
2023/05/29 07:30:42;;;;;;;12.30;3.13;;;;;;;13.05;73.76;102498.91;5078014;28;20056;-36
2023/05/29 07:33:08;;;;;;;8.80;2.78;;;;;;;13.31;74.13;102498.09;5077341;28;20032;-36
2023/05/29 07:35:33;;;;;;;9.57;2.55;;;;;;;13.36;72.91;102493.69;5077076;28;20029;-36
2023/05/29 07:37:59;;;;;;;13.67;3.10;;;;;;;13.32;72.33;102505.19;5077018;28;20032;-36
2023/05/29 07:40:25;;;;;;;12.20;2.83;;;;;;;13.44;73.06;102498.09;5076867;28;20271;-37
2023/05/29 07:42:51;;;;;;;;;;;;;;;13.59;71.21;102500.59;5077351;28;20396;-36
2023/05/29 07:45:16;;;;;;;10.40;2.50;;;;;;;13.59;71.40;102495.16;5076671;28;20375;-36
2023/05/29 07:47:41;;;;;;;10.13;2.13;;;;;;;13.65;70.36;102513.34;5077327;28;20032;-36
2023/05/29 07:50:07;;;;;;;;;;;;;;;13.78;69.89;102509.78;5077583;28;20472;-36
2023/05/29 07:52:33;;;;;;;7.95;2.28;;;;;;;13.85;70.75;102495.09;5077497;28;19914;-36
2023/05/29 07:54:59;;;;;;;12.98;2.60;;;;;;;13.98;70.00;102515.19;5077157;28;20365;-36
2023/05/29 07:57:25;;;;;;;6.68;2.33;;;;;;;13.99;69.21;102495.09;5077246;28;20380;-36
2023/05/29 07:59:50;;;;;;;10.55;3.13;;;;;;;14.15;69.65;102500.91;5076389;28;20053;-36
2023/05/29 08:02:16;;;;;;;9.98;2.65;;;;;;;14.27;68.46;102498.34;5076905;28;20067;-36
2023/05/29 08:04:42;;;;;;;8.40;2.55;;;;;;;14.40;66.79;102511.91;5076506;28;20056;-36
2023/05/29 08:07:07;;;;;;;;;;;;;;;14.54;67.48;102506.41;5077517;28;20107;-37
2023/05/29 08:09:32;;;;;;;9.83;2.40;;;;;;;14.50;66.09;102513.34;5076385;28;19919;-37
2023/05/29 08:12:00;;;;;;;9.70;2.42;;;;;;;14.37;65.57;102512.31;5076683;28;20316;-36
2023/05/29 08:14:25;;;;;;;8.23;2.47;;;;;;;14.56;66.47;102509.75;5076312;28;20044;-36
2023/05/29 08:16:51;;;;;;;;;;;;;;;14.71;66.74;102514.91;5077604;28;20037;-36
2023/05/29 08:19:16;;;;;;;10.52;2.40;;;;;;;14.62;65.04;102503.44;5076152;28;20368;-36
2023/05/29 08:21:42;;;;;;;;;;;;;;;14.70;66.24;102518.69;5076996;28;20110;-36
2023/05/29 08:24:08;;;;;;;9.15;2.38;;;;;;;14.72;64.34;102511.13;5076147;28;19909;-36
2023/05/29 08:26:34;;;;;;;8.05;2.28;;;;;;;14.77;64.91;102514.03;5076109;28;20043;-36
2023/05/29 08:29:00;;;;;;;9.82;2.53;;;;;;;14.80;64.94;102524.50;5076099;28;20116;-36
2023/05/29 08:31:26;;;;;;;;;;;;;;;14.86;64.69;102518.19;5076645;28;20062;-36
2023/05/29 08:33:55;;;;;;;9.70;2.40;;;;;;;14.52;63.72;102517.53;5075966;28;19908;-36
2023/05/29 08:36:23;;;;;;;7.82;2.10;;;;;;;14.60;64.61;102509.13;5076501;28;20103;-36
2023/05/29 08:38:49;;;;;;;8.93;2.20;;;;;;;14.76;63.36;102515.09;5075841;28;20111;-36
2023/05/29 08:41:25;;;;;;;7.60;2.40;;;;;;;14.84;63.50;102525.75;5076385;28;20029;-36
2023/05/29 08:43:52;;;;;;;6.10;1.90;;;;;;;14.92;62.86;102518.13;5076170;28;20024;-36
2023/05/29 08:46:21;;;;;;;6.50;2.30;;;;;;;15.00;62.68;102524.38;5076112;28;20028;-36
2023/05/29 08:48:49;;;;;;;11.32;2.40;;;;;;;15.16;62.60;102529.28;5075679;28;20021;-36
2023/05/29 08:51:21;;;;;;;8.70;2.10;;;;;;;15.15;63.35;102520.28;5076527;28;20033;-36
2023/05/29 08:53:46;;;;;;;9.07;2.75;;;;;;;15.41;62.67;102518.41;5075307;28;20025;-36
2023/05/29 08:56:12;;;;;;;;;;;;;;;15.73;62.49;102537.47;5076920;28;20027;-36
2023/05/29 08:58:37;;;;;;;9.80;2.07;;;;;;;15.81;60.88;102524.38;5075537;28;19916;-36
2023/05/29 09:01:03;;;;;;;;;;;;;;;16.00;62.01;102530.66;5076647;28;20306;-36
2023/05/29 09:03:28;;;;;;;9.32;2.50;;;;;;;15.93;59.82;102525.28;5075416;28;19920;-36
2023/05/29 09:05:58;;;;;;;;;;;;;;;16.33;60.04;102524.81;5075547;28;20028;-36
2023/05/29 09:08:25;;;;;;;10.27;3.03;;;;;;;16.29;58.19;102533.69;5075592;28;19957;-36
2023/05/29 09:10:50;;;;;;;9.80;2.42;;;;;;;16.34;56.59;102529.22;5075286;28;20029;-36
2023/05/29 09:13:15;;;;;;;;;;;;;;;16.50;57.81;102530.50;5075942;28;20029;-36
2023/05/29 09:15:42;;;;;;;7.10;2.33;;;;;;;16.23;55.84;102539.00;5075260;28;19912;-36
2023/05/29 09:18:08;;;;;;;8.68;2.20;;;;;;;16.23;56.53;102530.00;5075028;28;20321;-36
2023/05/29 09:20:34;;;;;;;;;;;;;;;16.55;58.63;102525.19;5075529;28;20032;-36
2023/05/29 09:23:02;;;;;;;6.88;2.35;;;;;;;16.46;55.85;102523.84;5075056;28;19913;-36
2023/05/29 09:25:30;;;;;;;10.35;2.13;;;;;;;16.39;56.16;102523.06;5075274;28;20032;-36
2023/05/29 09:28:05;;;;;;;5.93;2.28;;;;;;;16.33;56.85;102541.22;5074644;28;20448;-36
2023/05/29 09:30:43;;;;;;;8.20;2.72;;;;;;;16.30;56.30;102527.16;5074911;28;20473;-36
2023/05/29 09:33:10;;;;;;;8.25;2.03;;;;;;;16.34;57.00;102525.66;5074843;28;20465;-36
2023/05/29 09:35:41;;;;;;;7.63;2.00;;;;;;;16.57;56.02;102531.25;5074879;28;20029;-36
2023/05/29 09:38:11;;;;;;;5.88;1.80;;;;;;;16.67;56.55;102526.06;5075091;28;20078;-36
2023/05/29 09:40:38;;;;;;;8.38;2.15;;;;;;;16.88;55.42;102524.75;5074582;28;20483;-36
2023/05/29 09:43:11;;;;;;;8.05;2.17;;;;;;;17.01;55.74;102514.69;5074873;28;20056;-36
2023/05/29 09:45:38;;;;;;;9.35;2.25;;;;;;;16.97;55.23;102506.13;5074436;28;20538;-36
2023/05/29 09:48:05;;;;;;;5.85;2.35;;;;;;;17.15;55.18;102508.78;5074508;28;20028;-36
2023/05/29 09:50:33;;;;;;;11.65;2.65;;;;;;;17.28;55.58;102509.66;5075027;28;20043;-36
2023/05/29 09:53:01;;;;;;;6.95;1.88;;;;;;;17.27;55.01;102517.00;5075252;28;20029;-36
2023/05/29 09:55:28;;;;;;;8.43;3.00;;;;;;;17.39;54.92;102523.34;5074502;28;20055;-36
2023/05/29 09:57:57;;;;;;;6.00;2.17;;;;;;;17.29;54.58;102503.94;5074042;28;20059;-36
2023/05/29 10:00:23;;;;;;;6.95;2.30;;;;;;;17.34;52.90;102519.66;5074406;28;20048;-36
2023/05/29 10:02:49;;;;;;;5.32;1.80;;;;;;;17.19;54.07;102518.19;5073984;28;20029;-36
2023/05/29 10:05:15;;;;;;;5.25;1.98;;;;;;;17.54;53.54;102505.63;5074841;28;20033;-36
2023/05/29 10:07:48;;;;;;;6.25;2.20;;;;;;;17.63;52.82;102513.25;5074162;28;20036;-36
2023/05/29 10:10:15;;;;;;;7.10;2.22;;;;;;;17.90;53.53;102510.88;5074983;28;20039;-36
2023/05/29 10:12:48;;;;;;;4.10;1.80;;;;;;;17.72;52.83;102511.00;5073771;28;20058;-36
2023/05/29 10:15:16;;;;;;;8.25;1.80;;;;;;;17.84;52.51;102513.75;5074105;28;20021;-36
2023/05/29 10:18:04;;;;;;;6.57;2.05;;;;;;;18.12;53.10;102510.25;5074320;28;20029;-36
2023/05/29 10:20:31;;;;;;;7.03;1.98;;;;;;;18.15;54.17;102491.44;5074196;28;20086;-36
2023/05/29 10:23:00;;;;;;;7.15;2.58;;;;;;;18.45;52.72;102506.84;5074242;28;20055;-36
2023/05/29 10:25:28;;;;;;;3.60;1.70;;;;;;;18.53;51.48;102503.69;5074749;28;20115;-36
2023/05/29 10:27:56;;;;;;;6.03;1.88;;;;;;;18.49;51.14;102486.09;5073550;28;20025;-36
2023/05/29 10:30:40;;;;;;;5.38;1.70;;;;;;;18.62;51.12;102507.72;5074181;28;20036;-36
2023/05/29 10:33:32;;;;;;;8.10;2.30;;;;;;;18.49;51.08;102499.78;5074096;28;20103;-36
2023/05/29 10:36:13;;;;;;;7.30;2.15;;;;;;;18.57;51.19;102496.66;5074304;28;20021;-36
2023/05/29 10:38:41;;;;;;;5.05;1.65;;;;;;;18.53;49.46;102487.25;5074582;28;20416;-36
2023/05/29 10:41:31;;;;;;;6.32;2.20;;;;;;;18.41;50.23;102492.81;5073869;28;20078;-36
2023/05/29 10:44:03;;;;;;;7.93;2.13;;;;;;;18.29;49.85;102481.03;5071074;28;20036;-36
2023/05/29 10:46:49;;;;;;;5.97;1.90;;;;;;;18.57;51.08;102484.88;5074219;28;20035;-36
2023/05/29 10:49:16;;;;;;;5.45;1.95;;;;;;;18.92;50.79;102487.47;5074262;28;20062;-36
2023/05/29 10:51:42;;;;;;;6.50;2.00;;;;;;;19.13;49.42;102489.50;5074086;28;20036;-36
2023/05/29 10:54:07;;;;;;;6.07;1.95;;;;;;;19.07;47.98;102486.91;5073556;28;20029;-36
2023/05/29 10:56:33;;;;;;;6.07;2.05;;;;;;;19.12;47.46;102486.97;5074207;28;20060;-36
2023/05/29 10:59:03;;;;;;;6.38;2.00;;;;;;;18.88;48.46;102492.59;5073278;28;20461;-36
2023/05/29 11:01:30;;;;;;;5.25;1.83;;;;;;;18.98;47.93;102489.22;5073655;28;20076;-36
2023/05/29 11:04:17;;;;;;;8.00;2.80;;;;;;;18.77;47.13;102497.06;5073641;28;20025;-36
2023/05/29 11:06:46;;;;;;;5.22;1.83;;;;;;;18.74;48.17;102503.06;5073405;28;20024;-36
2023/05/29 11:09:31;;;;;;;7.13;1.88;;;;;;;18.86;49.07;102488.47;5073046;28;20393;-36
2023/05/29 11:12:24;;;;;;;6.10;1.77;;;;;;;19.11;49.31;102486.16;5073372;28;20037;-36
2023/05/29 11:14:55;;;;;;;7.00;2.08;;;;;;;19.19;49.41;102469.31;5073875;28;20362;-36
2023/05/29 11:17:44;;;;;;;8.18;2.28;;;;;;;19.54;49.26;102481.91;5073387;28;20021;-36
2023/05/29 11:20:35;;;;;;;5.30;1.80;;;;;;;19.61;47.49;102479.84;5073247;28;20055;-36
2023/05/29 11:23:08;;;;;;;5.68;2.13;;;;;;;19.41;47.76;102463.88;5073910;28;20036;-37
2023/05/29 11:25:36;;;;;;;4.43;2.00;;;;;;;19.57;48.71;102473.19;5073181;28;20078;-36